Time;durP1;ratioP1;P1;durP2;ratioP2;P2;SDS_P1;SDS_P2;PMS_P1;PMS_P2;Temp;Humidity;BMP_temperature;BMP_pressure;BME280_temperature;BME280_humidity;BME280_pressure;Samples;Min_cycle;Max_cycle;Signal;HPM_P1;HPM_P2
2021/04/14 00:01:15;;;;;;;94.95;59.70;;;;;;;10.15;100.00;100094.63;5054349;28;20041;-68
2021/04/14 00:03:41;;;;;;;90.30;63.08;;;;;;;10.25;100.00;100106.97;5054301;28;20017;-68
2021/04/14 00:06:08;;;;;;;86.97;59.30;;;;;;;10.41;100.00;100115.25;5054125;28;20048;-68
2021/04/14 00:08:34;;;;;;;154.07;52.95;;;;;;;10.15;100.00;100065.81;5052844;28;20024;-68
2021/04/14 00:11:00;;;;;;;122.38;45.33;;;;;;;10.55;100.00;100117.53;5053993;28;20029;-68
2021/04/14 00:13:31;;;;;;;56.55;42.85;;;;;;;10.76;100.00;100148.13;5054000;28;20025;-68
2021/04/14 00:15:58;;;;;;;52.15;42.00;;;;;;;10.71;100.00;100147.72;5054442;28;20024;-69
2021/04/14 00:18:24;;;;;;;49.10;40.10;;;;;;;10.64;100.00;100110.69;5054395;28;20037;-68
2021/04/14 00:20:50;;;;;;;51.25;42.22;;;;;;;10.80;100.00;100141.66;5054124;28;20025;-68
2021/04/14 00:23:19;;;;;;;51.75;40.58;;;;;;;10.66;100.00;100113.19;5054199;28;20024;-68
2021/04/14 00:25:47;;;;;;;50.65;41.80;;;;;;;10.64;100.00;100110.69;5053914;28;20118;-68
2021/04/14 00:28:15;;;;;;;55.90;42.65;;;;;;;10.81;100.00;100127.63;5054194;28;20021;-68
2021/04/14 00:30:41;;;;;;;68.88;48.13;;;;;;;10.47;100.00;100085.94;5053925;28;20025;-68
2021/04/14 00:33:07;;;;;;;69.80;48.25;;;;;;;10.61;100.00;100132.75;5053800;28;20534;-68
2021/04/14 00:35:32;;;;;;;78.43;52.92;;;;;;;10.44;100.00;100124.66;5053695;28;20024;-68
2021/04/14 00:37:58;;;;;;;83.30;55.58;;;;;;;10.43;100.00;100126.44;5053691;28;20096;-68
2021/04/14 00:40:36;;;;;;;81.43;54.03;;;;;;;10.42;100.00;100121.31;5053677;28;20409;-68
2021/04/14 00:43:10;;;;;;;83.60;55.58;;;;;;;10.44;100.00;100124.66;5053768;28;20112;-68
2021/04/14 00:45:35;;;;;;;87.43;56.13;;;;;;;10.15;100.00;100081.53;5053606;28;20033;-68
2021/04/14 00:48:01;;;;;;;91.00;58.25;;;;;;;10.23;100.00;100075.69;5053644;28;20499;-68
2021/04/14 00:50:27;;;;;;;86.82;56.85;;;;;;;10.14;100.00;100076.44;5053868;28;20029;-68
2021/04/14 00:52:53;;;;;;;82.97;56.72;;;;;;;10.16;100.00;100098.09;5053267;28;20107;-68
2021/04/14 00:55:21;;;;;;;90.07;59.00;;;;;;;10.26;100.00;100113.88;5053506;28;20564;-68
2021/04/14 00:57:46;;;;;;;83.32;56.67;;;;;;;10.11;100.00;100077.53;5053425;28;20057;-68
2021/04/14 01:00:19;;;;;;;88.28;56.38;;;;;;;10.07;100.00;100073.50;5053277;28;20542;-68
2021/04/14 01:02:44;;;;;;;83.68;56.00;;;;;;;10.13;100.00;100080.03;5053950;28;20102;-68
2021/04/14 01:05:16;;;;;;;78.47;54.95;;;;;;;10.24;100.00;100094.84;5053052;28;20539;-68
2021/04/14 01:07:41;;;;;;;77.43;54.90;;;;;;;10.28;100.00;100102.34;5052729;28;20132;-68
2021/04/14 01:10:07;;;;;;;80.60;53.83;;;;;;;10.07;100.00;100064.81;5052819;28;20021;-68
2021/04/14 01:12:32;;;;;;;81.80;55.90;;;;;;;10.17;100.00;100079.63;5052986;28;20057;-68
2021/04/14 01:14:58;;;;;;;80.85;55.15;;;;;;;10.27;100.00;100092.00;5052849;28;20060;-68
2021/04/14 01:17:24;;;;;;;85.00;54.88;;;;;;;10.03;100.00;100055.56;5052804;28;20025;-68
2021/04/14 01:19:49;;;;;;;78.95;52.40;;;;;;;9.89;100.00;100039.22;5052732;28;20017;-68
2021/04/14 01:22:15;;;;;;;83.85;55.33;;;;;;;9.94;100.00;100072.84;5052526;28;20033;-68
2021/04/14 01:24:40;;;;;;;93.13;60.05;;;;;;;9.80;100.00;100067.91;5052866;28;20031;-68
2021/04/14 01:27:06;;;;;;;84.20;56.22;;;;;;;9.76;100.00;100045.59;5052758;28;20119;-68
2021/04/14 01:29:32;;;;;;;89.60;56.35;;;;;;;9.61;100.00;100032.78;5052976;28;20079;-68
2021/04/14 01:31:57;;;;;;;95.93;57.72;;;;;;;9.65;100.00;100043.81;5052412;28;20440;-68
2021/04/14 01:34:23;;;;;;;97.28;59.97;;;;;;;9.72;100.00;100070.31;5052539;28;20017;-68
2021/04/14 01:36:48;;;;;;;94.28;57.20;;;;;;;9.81;100.00;100059.94;5052314;28;20029;-68
2021/04/14 01:39:14;;;;;;;106.32;58.05;;;;;;;9.72;100.00;100055.47;5052643;28;20021;-68
2021/04/14 01:41:41;;;;;;;114.97;64.20;;;;;;;9.62;100.00;100034.44;5052473;28;20067;-69
2021/04/14 01:44:10;;;;;;;117.00;65.18;;;;;;;9.70;100.00;100046.91;5052415;28;20031;-70
2021/04/14 01:46:41;;;;;;;121.78;67.13;;;;;;;9.55;100.00;100054.22;5051055;28;20083;-68
2021/04/14 01:49:07;;;;;;;120.68;68.13;;;;;;;9.34;100.00;100009.69;5052161;28;20025;-70
2021/04/14 01:51:33;;;;;;;138.85;71.72;;;;;;;9.15;100.00;99996.44;5050483;28;20530;-70
2021/04/14 01:53:59;;;;;;;146.13;74.57;;;;;;;9.14;100.00;100006.06;5052153;28;20063;-70
2021/04/14 01:56:24;;;;;;;167.88;73.97;;;;;;;9.14;100.00;100006.06;5052257;28;20044;-70
2021/04/14 01:58:50;;;;;;;153.18;73.68;;;;;;;9.41;100.00;100025.72;5052489;28;20017;-68
2021/04/14 02:01:16;;;;;;;135.38;66.45;;;;;;;9.43;100.00;100039.50;5052216;28;20036;-68
2021/04/14 02:03:42;;;;;;;150.52;68.03;;;;;;;9.30;100.00;100038.81;5052031;28;20025;-68
2021/04/14 02:06:10;;;;;;;142.75;67.32;;;;;;;9.23;100.00;100018.41;5051969;28;20106;-68
2021/04/14 02:08:36;;;;;;;165.75;68.45;;;;;;;9.16;100.00;100003.31;5052122;28;20060;-69
2021/04/14 02:11:02;;;;;;;151.38;67.40;;;;;;;9.48;100.00;100032.09;5052074;28;20166;-68
2021/04/14 02:13:30;;;;;;;149.85;69.50;;;;;;;9.46;100.00;100031.41;5052048;28;20035;-69
2021/04/14 02:15:57;;;;;;;168.77;68.03;;;;;;;9.45;100.00;100027.16;5050544;28;20029;-68
2021/04/14 02:18:23;;;;;;;164.35;65.78;;;;;;;9.46;100.00;100029.63;5051911;28;20029;-68
2021/04/14 02:20:49;;;;;;;187.95;65.25;;;;;;;9.39;100.00;100025.84;5050771;28;20474;-68
2021/04/14 02:23:28;;;;;;;167.65;65.65;;;;;;;9.19;100.00;99995.25;5051932;28;20511;-68
2021/04/14 02:25:56;;;;;;;152.70;61.80;;;;;;;9.22;100.00;100005.47;5051933;28;20029;-68
2021/04/14 02:28:22;;;;;;;162.88;66.38;;;;;;;9.19;100.00;100010.94;5051811;28;20032;-68
2021/04/14 02:30:48;;;;;;;159.30;65.63;;;;;;;9.32;100.00;100013.41;5051728;28;20029;-68
2021/04/14 02:33:14;;;;;;;174.20;59.33;;;;;;;9.55;100.00;100028.06;5051866;28;20059;-68
2021/04/14 02:35:39;;;;;;;147.40;61.40;;;;;;;9.68;100.00;100028.69;5051597;28;20053;-69
2021/04/14 02:38:06;;;;;;;140.30;60.03;;;;;;;9.73;100.00;100027.50;5051794;28;20029;-68
2021/04/14 02:40:33;;;;;;;139.57;57.10;;;;;;;9.59;100.00;100003.31;5051573;28;20079;-68
2021/04/14 02:42:59;;;;;;;159.85;56.70;;;;;;;9.81;100.00;100028.53;5051635;28;20131;-68
2021/04/14 02:45:29;;;;;;;207.77;58.42;;;;;;;9.69;100.00;100009.44;5051558;28;20041;-68
2021/04/14 02:47:54;;;;;;;248.68;58.63;;;;;;;9.72;100.00;100017.97;5051556;28;20488;-68
2021/04/14 02:50:20;;;;;;;173.68;57.55;;;;;;;9.52;100.00;99998.66;5052010;28;20059;-68
2021/04/14 02:52:46;;;;;;;168.25;59.00;;;;;;;9.43;100.00;99992.44;5051609;28;20025;-68
2021/04/14 02:55:17;;;;;;;208.07;62.70;;;;;;;9.62;100.00;100018.75;5051911;28;20048;-68
2021/04/14 02:57:43;;;;;;;351.13;71.57;;;;;;;9.48;100.00;99995.47;5051632;28;20032;-68
2021/04/14 03:00:10;;;;;;;403.13;76.57;;;;;;;9.64;100.00;100003.75;5051656;28;20036;-68
2021/04/14 03:02:36;;;;;;;288.45;73.68;;;;;;;9.39;100.00;100023.22;5052919;28;20033;-68
2021/04/14 03:05:06;;;;;;;309.80;75.18;;;;;;;9.19;100.00;100003.09;5055577;28;20040;-68
2021/04/14 03:07:32;;;;;;;264.52;76.38;;;;;;;9.11;100.00;99993.25;5055409;28;20483;-68
2021/04/14 03:09:58;;;;;;;185.98;73.82;;;;;;;9.35;100.00;100010.53;5055434;28;20029;-68
2021/04/14 03:12:23;;;;;;;318.98;75.85;;;;;;;9.51;100.00;100026.63;5055261;28;20025;-68
2021/04/14 03:14:49;;;;;;;320.15;72.35;;;;;;;9.55;100.00;100007.13;5055026;28;20071;-68
2021/04/14 03:17:15;;;;;;;266.25;64.95;;;;;;;9.33;100.00;99981.06;5055311;28;20045;-68
2021/04/14 03:19:40;;;;;;;317.45;70.75;;;;;;;9.28;100.00;100009.34;5055643;28;20040;-68
2021/04/14 03:22:05;;;;;;;293.33;72.60;;;;;;;9.06;100.00;99997.19;5055195;28;20037;-68
2021/04/14 03:24:31;;;;;;;270.00;76.07;;;;;;;9.04;100.00;99993.84;5054312;28;20480;-68
2021/04/14 03:26:57;;;;;;;190.18;68.68;;;;;;;9.31;100.00;100014.31;5054047;28;20458;-68
2021/04/14 03:29:22;;;;;;;263.25;69.43;;;;;;;9.20;100.00;99979.41;5054377;28;20025;-68
2021/04/14 03:31:48;;;;;;;356.55;74.18;;;;;;;9.33;100.00;99999.34;5054691;28;20036;-68
2021/04/14 03:34:13;;;;;;;233.23;66.32;;;;;;;9.07;100.00;99973.50;5054892;28;20017;-68
2021/04/14 03:36:39;;;;;;;311.08;68.40;;;;;;;8.94;100.00;99949.31;5054962;28;20110;-68
2021/04/14 03:39:06;;;;;;;414.42;74.05;;;;;;;9.39;100.00;100004.91;5054958;28;20036;-68
2021/04/14 03:41:32;;;;;;;200.65;63.03;;;;;;;9.63;100.00;100041.34;5054727;28;20033;-68
2021/04/14 03:43:58;;;;;;;208.65;61.92;;;;;;;9.63;100.00;100033.47;5054727;28;20025;-68
2021/04/14 03:46:25;;;;;;;226.02;61.20;;;;;;;9.58;100.00;100006.84;5053565;28;20091;-68
2021/04/14 03:48:51;;;;;;;314.77;65.43;;;;;;;9.75;100.00;100036.88;5054766;28;20025;-68
2021/04/14 03:51:17;;;;;;;342.95;69.75;;;;;;;9.62;100.00;100034.44;5054554;28;20033;-68
2021/04/14 03:53:43;;;;;;;155.45;58.65;;;;;;;9.38;100.00;99997.19;5054683;28;20025;-68
2021/04/14 03:56:18;;;;;;;293.50;65.47;;;;;;;9.59;100.00;100028.63;5052947;28;20028;-68
2021/04/14 03:58:46;;;;;;;362.27;65.85;;;;;;;9.72;100.00;100033.69;5054547;28;20056;-69
2021/04/14 04:01:15;;;;;;;217.07;62.97;;;;;;;9.56;100.00;100000.94;5053204;28;20037;-69
2021/04/14 04:03:41;;;;;;;245.57;60.97;;;;;;;9.58;100.00;100016.50;5055668;28;20027;-68
2021/04/14 04:06:07;;;;;;;190.45;57.78;;;;;;;9.47;100.00;100006.91;5074255;28;20130;-68
2021/04/14 04:08:33;;;;;;;214.10;58.42;;;;;;;9.57;100.00;100027.91;5073710;28;20041;-69
2021/04/14 04:10:58;;;;;;;211.45;61.30;;;;;;;9.33;100.00;100000.19;5072218;28;20037;-68
2021/04/14 04:13:24;;;;;;;171.73;56.58;;;;;;;9.43;100.00;100006.31;5072449;28;20039;-67
2021/04/14 04:15:50;;;;;;;165.18;57.13;;;;;;;9.73;100.00;100040.59;5074210;28;20025;-68
2021/04/14 04:18:16;;;;;;;181.52;57.65;;;;;;;9.85;100.00;100034.34;5073983;28;20119;-68
2021/04/14 04:20:41;;;;;;;179.45;54.40;;;;;;;9.55;100.00;100004.50;5074171;28;20029;-68
2021/04/14 04:23:09;;;;;;;160.73;53.90;;;;;;;9.58;100.00;100025.16;5073976;28;20530;-68
2021/04/14 04:25:36;;;;;;;191.23;54.92;;;;;;;9.21;100.00;100002.00;5074018;28;20116;-68
2021/04/14 04:28:03;;;;;;;284.77;58.67;;;;;;;9.41;100.00;100046.63;5073939;28;20028;-68
2021/04/14 04:30:30;;;;;;;140.38;54.70;;;;;;;9.22;100.00;100010.69;5073926;28;20028;-68
2021/04/14 04:32:57;;;;;;;172.77;60.20;;;;;;;9.49;100.00;100057.31;5073853;28;20472;-68
2021/04/14 04:35:23;;;;;;;216.65;61.35;;;;;;;9.38;100.00;100052.09;5074166;28;20033;-68
2021/04/14 04:37:48;;;;;;;324.77;61.03;;;;;;;9.20;100.00;100050.00;5073803;28;20082;-67
2021/04/14 04:40:15;;;;;;;229.15;62.20;;;;;;;8.64;100.00;99981.31;5073765;28;20025;-69
2021/04/14 04:42:40;;;;;;;222.35;57.40;;;;;;;9.07;100.00;100065.00;5073709;28;20103;-70
2021/04/14 04:45:10;;;;;;;173.73;55.42;;;;;;;9.09;100.00;100063.13;5073644;28;20048;-68
2021/04/14 04:47:36;;;;;;;154.05;53.70;;;;;;;8.72;100.00;100032.03;5073823;28;20028;-69
2021/04/14 04:50:03;;;;;;;205.52;51.38;;;;;;;8.65;100.00;100041.28;5050646;28;20036;-67
2021/04/14 04:52:29;;;;;;;249.15;56.22;;;;;;;8.97;100.00;100077.13;5047868;28;20566;-68
2021/04/14 04:54:54;;;;;;;291.38;59.30;;;;;;;8.86;100.00;100056.25;5047733;28;20036;-69
2021/04/14 04:57:19;;;;;;;170.13;47.15;;;;;;;8.58;100.00;100016.59;5047856;28;20032;-67
2021/04/14 04:59:45;;;;;;;126.70;42.28;;;;;;;8.82;100.00;100053.03;5047912;28;20066;-67
2021/04/14 05:02:12;;;;;;;145.52;41.20;;;;;;;8.69;100.00;100040.09;5048085;28;20037;-67
2021/04/14 05:04:37;;;;;;;141.63;47.95;;;;;;;9.07;100.00;100095.56;5043921;28;20048;-67
2021/04/14 05:07:03;;;;;;;138.30;43.72;;;;;;;8.84;100.00;100058.13;5047820;28;20045;-67
2021/04/14 05:09:28;;;;;;;128.23;57.63;;;;;;;8.95;100.00;100079.06;5047509;28;20551;-67
2021/04/14 05:11:54;;;;;;;106.90;42.17;;;;;;;9.20;100.00;100099.69;5047920;28;20111;-68
2021/04/14 05:14:19;;;;;;;123.78;40.03;;;;;;;9.27;100.00;100097.44;5047462;28;20021;-71
2021/04/14 05:16:45;;;;;;;120.95;43.30;;;;;;;9.34;100.00;100108.22;5047843;28;20033;-68
2021/04/14 05:19:10;;;;;;;123.47;48.55;;;;;;;9.36;100.00;100112.41;5046983;28;20062;-68
2021/04/14 05:21:38;;;;;;;118.00;38.35;;;;;;;9.11;100.00;100076.91;5047873;28;20033;-68
2021/04/14 05:24:04;;;;;;;104.50;40.28;;;;;;;9.42;100.00;100109.31;5045419;28;20107;-68
2021/04/14 05:26:30;;;;;;;111.57;47.55;;;;;;;9.30;100.00;100076.28;5047233;28;20116;-68
2021/04/14 05:28:56;;;;;;;115.05;41.97;;;;;;;9.59;100.00;100115.81;5047259;28;20029;-68
2021/04/14 05:31:21;;;;;;;108.85;40.75;;;;;;;9.60;100.00;100099.16;5047470;28;20515;-68
2021/04/14 05:33:48;;;;;;;110.75;37.83;;;;;;;9.66;100.00;100103.06;5047314;28;20114;-68
2021/04/14 05:36:13;;;;;;;133.57;37.58;;;;;;;9.56;100.00;100100.34;5047154;28;20043;-69
2021/04/14 05:38:39;;;;;;;99.53;37.13;;;;;;;9.32;100.00;100070.94;5047465;28;20416;-67
2021/04/14 05:41:04;;;;;;;109.53;39.72;;;;;;;9.21;100.00;100069.16;5047057;28;20029;-68
2021/04/14 05:43:35;;;;;;;103.70;38.88;;;;;;;9.16;100.00;100064.28;5046576;28;20025;-69
2021/04/14 05:46:04;;;;;;;111.18;36.65;;;;;;;9.00;100.00;100053.38;5046559;28;20024;-68
2021/04/14 05:48:30;;;;;;;112.35;41.92;;;;;;;9.08;100.00;100064.06;5046718;28;20126;-68
2021/04/14 05:50:58;;;;;;;122.25;44.47;;;;;;;9.38;100.00;100104.41;5045800;28;20539;-68
2021/04/14 05:53:24;;;;;;;130.82;48.70;;;;;;;9.15;100.00;100065.25;5046003;28;20425;-68
2021/04/14 05:55:50;;;;;;;123.75;44.65;;;;;;;9.49;100.00;100114.06;5045949;28;20029;-68
2021/04/14 05:58:16;;;;;;;122.05;42.85;;;;;;;9.38;100.00;100096.56;5046127;28;20037;-68
2021/04/14 06:00:42;;;;;;;118.22;40.92;;;;;;;9.41;100.00;100109.41;5046845;28;20398;-68
2021/04/14 06:03:07;;;;;;;120.55;40.35;;;;;;;9.43;100.00;100110.13;5046893;28;20493;-68
2021/04/14 06:05:32;;;;;;;122.50;45.63;;;;;;;9.44;100.00;100103.94;5046472;28;20029;-68
2021/04/14 06:07:58;;;;;;;136.20;41.78;;;;;;;9.47;100.00;100114.16;5047163;28;20048;-68
2021/04/14 06:10:24;;;;;;;125.13;41.40;;;;;;;9.27;100.00;100080.91;5046996;28;20393;-68
2021/04/14 06:12:52;;;;;;;125.70;39.58;;;;;;;9.28;100.00;100090.41;5046925;28;20366;-68
2021/04/14 06:15:30;;;;;;;125.40;42.47;;;;;;;9.31;100.00;100106.69;5047387;28;20040;-68
2021/04/14 06:17:57;;;;;;;138.10;51.97;;;;;;;9.31;100.00;100108.47;5047235;28;20033;-68
2021/04/14 06:20:24;;;;;;;127.05;46.30;;;;;;;9.38;100.00;100110.50;5061893;28;20606;-68
2021/04/14 06:22:50;;;;;;;143.65;43.72;;;;;;;9.34;100.00;100109.06;5046874;28;20033;-68
2021/04/14 06:25:18;;;;;;;125.05;43.40;;;;;;;9.26;100.00;100089.72;5042304;28;20044;-68
2021/04/14 06:28:01;;;;;;;121.55;42.28;;;;;;;9.19;100.00;100092.81;5046491;28;20029;-68
2021/04/14 06:30:26;;;;;;;127.18;44.65;;;;;;;9.30;100.00;100117.28;5046784;28;20063;-68
2021/04/14 06:32:52;;;;;;;128.18;46.58;;;;;;;9.14;100.00;100092.31;5046662;28;20052;-68
2021/04/14 06:35:19;;;;;;;143.18;46.50;;;;;;;9.32;100.00;100115.38;5046361;28;20569;-68
2021/04/14 06:37:44;;;;;;;144.18;47.38;;;;;;;9.21;100.00;100075.22;5050096;28;20029;-68
2021/04/14 06:43:10;;;;;;;133.48;47.10;;;;;;;9.30;100.00;100102.41;5047273;28;20040;-68
2021/04/14 06:45:41;;;;;;;129.75;46.15;;;;;;;9.44;100.00;100130.09;5042618;28;20097;-69
2021/04/14 06:48:07;;;;;;;130.70;48.58;;;;;;;9.39;100.00;100106.09;5050804;28;20049;-69
2021/04/14 06:50:38;;;;;;;130.00;49.90;;;;;;;9.56;100.00;100118.66;5050871;28;20092;-69
2021/04/14 06:53:33;;;;;;;123.28;45.13;;;;;;;9.58;100.00;100115.91;5050493;28;20036;-69
2021/04/14 06:56:09;;;;;;;119.10;44.25;;;;;;;9.37;100.00;100077.44;5050052;28;20040;-68
2021/04/14 06:59:05;;;;;;;123.32;45.35;;;;;;;9.67;100.00;100110.78;5050645;28;20495;-69
2021/04/14 07:01:58;;;;;;;116.80;47.38;;;;;;;9.72;100.00;100106.94;5048301;28;20498;-68
2021/04/14 07:04:32;;;;;;;107.47;44.08;;;;;;;9.82;100.00;100105.25;5046865;28;20035;-69
2021/04/14 07:07:01;;;;;;;119.40;48.22;;;;;;;9.86;100.00;100076.09;5049893;28;20045;-69
2021/04/14 07:09:33;;;;;;;108.75;48.03;;;;;;;10.19;100.00;100105.69;5050282;28;20021;-68
2021/04/14 07:12:00;;;;;;;93.57;46.20;;;;;;;10.37;100.00;100101.56;5049870;28;20114;-69
2021/04/14 07:14:26;;;;;;;100.32;45.22;;;;;;;10.59;100.00;100105.00;5050299;28;20510;-69
2021/04/14 07:17:33;;;;;;;80.88;41.92;;;;;;;10.82;100.00;100106.50;5050188;28;20044;-70
2021/04/14 07:20:34;;;;;;;80.07;42.22;;;;;;;11.40;100.00;100107.66;5043248;28;20475;-69
2021/04/14 07:23:11;;;;;;;66.15;35.85;;;;;;;11.73;100.00;100098.59;5048768;28;20025;-69
2021/04/14 07:25:51;;;;;;;68.32;38.22;;;;;;;11.95;100.00;100108.88;5049752;28;20029;-69
2021/04/14 07:28:47;;;;;;;61.13;35.20;;;;;;;12.16;100.00;100094.78;5049870;28;20115;-69
2021/04/14 07:31:24;;;;;;;54.20;33.80;;;;;;;12.44;100.00;100109.66;5049642;28;20048;-69
2021/04/14 07:33:58;;;;;;;55.40;34.33;;;;;;;12.78;100.00;100069.72;5050169;28;20075;-70
2021/04/14 07:36:38;;;;;;;49.53;30.13;;;;;;;13.21;100.00;100092.78;5049561;28;20040;-69
2021/04/14 07:39:11;;;;;;;;;;;;;;;13.69;100.00;100090.84;5050087;28;20116;-69
2021/04/14 07:41:50;;;;;;;52.20;30.67;;;;;;;13.72;100.00;100095.81;5049622;28;19919;-69
2021/04/14 07:44:37;;;;;;;51.53;30.58;;;;;;;13.76;100.00;100094.53;5049211;28;20119;-70
2021/04/14 07:47:06;;;;;;;44.72;27.92;;;;;;;13.49;100.00;100068.25;5049610;28;20063;-69
2021/04/14 07:49:34;;;;;;;51.97;31.70;;;;;;;13.33;100.00;100066.28;5048412;28;20044;-70
2021/04/14 07:51:59;;;;;;;43.20;26.90;;;;;;;13.44;100.00;100093.22;5050143;28;20032;-69
2021/04/14 07:54:40;;;;;;;42.95;26.83;;;;;;;13.29;100.00;100064.91;5049472;28;20025;-69
2021/04/14 07:57:06;;;;;;;40.85;26.73;;;;;;;13.14;100.00;100054.03;5049089;28;20834;-69
2021/04/14 07:59:36;;;;;;;38.05;26.73;;;;;;;13.10;100.00;100055.31;5049431;28;20033;-69
2021/04/14 08:02:06;;;;;;;42.25;26.60;;;;;;;13.14;100.00;100075.09;5045808;28;20094;-69
2021/04/14 08:04:35;;;;;;;40.10;26.85;;;;;;;13.29;100.00;100064.91;5049513;28;20064;-69
2021/04/14 08:07:19;;;;;;;37.80;24.95;;;;;;;13.25;100.00;100030.19;5048694;28;20041;-69
2021/04/14 08:10:04;;;;;;;42.78;27.52;;;;;;;13.48;100.00;100082.41;5046797;28;20036;-69
2021/04/14 08:12:51;;;;;;;45.83;28.73;;;;;;;13.19;100.00;100075.47;5048751;28;20063;-69
2021/04/14 08:15:49;;;;;;;41.55;26.48;;;;;;;13.02;100.00;100078.88;5048867;28;20488;-68
2021/04/14 08:18:17;;;;;;;42.85;25.90;;;;;;;12.93;100.00;100083.22;5049577;28;20110;-69
2021/04/14 08:20:50;;;;;;;41.28;26.88;;;;;;;12.98;100.00;100083.59;5048713;28;20033;-69
2021/04/14 08:23:24;;;;;;;37.38;27.25;;;;;;;13.03;100.00;100067.38;5048340;28;20048;-69
2021/04/14 08:25:52;;;;;;;35.03;23.95;;;;;;;13.25;100.00;100053.03;5048671;28;20036;-69
2021/04/14 08:28:42;;;;;;;37.30;24.10;;;;;;;13.48;100.00;100074.50;5049005;28;20033;-69
2021/04/14 08:31:47;;;;;;;36.35;24.35;;;;;;;13.51;100.00;100082.09;5063906;28;20446;-68
2021/04/14 08:34:15;;;;;;;37.03;23.85;;;;;;;13.64;100.00;100085.22;5053121;28;20038;-69
2021/04/14 08:37:12;;;;;;;33.22;22.67;;;;;;;14.09;100.00;100092.19;5048910;28;20025;-72
2021/04/14 08:39:54;;;;;;;32.22;21.77;;;;;;;14.04;100.00;100084.75;5047873;28;20025;-73
2021/04/14 08:42:20;;;;;;;34.67;23.17;;;;;;;14.16;100.00;100083.50;5049063;28;20033;-71
2021/04/14 08:44:48;;;;;;;31.35;20.77;;;;;;;14.18;100.00;100054.38;5048124;28;20044;-71
2021/04/14 08:47:22;;;;;;;33.58;22.90;;;;;;;14.48;100.00;100049.59;5048186;28;20029;-72
2021/04/14 08:49:50;;;;;;;26.15;19.67;;;;;;;14.87;100.00;100065.84;5048339;28;20532;-71
2021/04/14 08:52:19;;;;;;;30.05;20.73;;;;;;;15.16;100.00;100068.09;5048056;28;20033;-72
2021/04/14 08:54:45;;;;;;;25.58;19.25;;;;;;;15.06;100.00;100062.97;5048281;28;20028;-71
2021/04/14 08:57:11;;;;;;;27.83;20.40;;;;;;;14.94;100.00;100066.03;5047895;28;20028;-71
2021/04/14 08:59:39;;;;;;;28.92;19.40;;;;;;;14.62;100.00;100046.44;5048671;28;20108;-71
2021/04/14 09:02:07;;;;;;;22.30;15.98;;;;;;;14.39;100.00;100025.84;5047833;28;20037;-71
2021/04/14 09:04:33;;;;;;;25.10;16.45;;;;;;;14.82;100.00;100058.41;5046943;28;20045;-71
2021/04/14 09:07:00;;;;;;;21.95;16.00;;;;;;;14.61;100.00;100026.31;5048154;28;20045;-71
2021/04/14 09:09:28;;;;;;;21.50;15.70;;;;;;;14.85;100.00;100031.72;5047824;28;20512;-71
2021/04/14 09:12:06;;;;;;;23.92;16.63;;;;;;;14.96;100.00;100058.81;5047722;28;20540;-71
2021/04/14 09:14:33;;;;;;;26.10;18.15;;;;;;;14.75;100.00;100057.38;5047873;28;20110;-72
2021/04/14 09:17:13;;;;;;;24.30;16.42;;;;;;;14.67;100.00;100062.59;5048035;28;20043;-69
2021/04/14 09:19:43;;;;;;;;;;;;;;;14.75;100.00;100061.81;5043631;28;20087;-71
2021/04/14 09:22:17;;;;;;;23.48;14.90;;;;;;;14.65;100.00;100067.22;5047503;28;20377;-71
2021/04/14 09:24:45;;;;;;;21.73;16.73;;;;;;;14.58;100.00;100030.09;5063179;28;21015;-71
2021/04/14 09:27:36;;;;;;;20.30;15.57;;;;;;;14.99;100.00;100069.03;5047652;28;20033;-70
2021/04/14 09:30:14;;;;;;;18.15;13.93;;;;;;;15.29;100.00;100062.38;5046543;28;20163;-72
2021/04/14 09:32:45;;;;;;;16.50;12.50;;;;;;;15.24;100.00;100054.91;5062535;28;20083;-72
2021/04/14 09:35:29;;;;;;;19.15;13.50;;;;;;;15.09;100.00;100059.19;5046866;28;20663;-72
2021/04/14 09:38:15;;;;;;;24.85;17.45;;;;;;;15.05;100.00;100031.44;5043502;28;20031;-71
2021/04/14 09:40:41;;;;;;;18.95;13.60;;;;;;;15.19;100.00;100051.94;5047192;28;20036;-72
2021/04/14 09:43:35;;;;;;;17.45;12.55;;;;;;;15.43;100.00;100045.91;5046788;28;20024;-71
2021/04/14 09:46:25;;;;;;;16.17;12.55;;;;;;;15.44;100.00;100052.00;5045618;28;20559;-71
2021/04/14 09:48:51;;;;;;;;;;;;;;;15.04;100.00;100049.09;5038915;28;20040;-71
2021/04/14 09:51:18;;;;;;;17.85;11.98;;;;;;;15.29;100.00;100044.72;5047071;28;19919;-73
2021/04/14 09:53:44;;;;;;;15.63;12.57;;;;;;;15.73;100.00;100031.28;5047241;28;20032;-72
2021/04/14 09:56:18;;;;;;;18.52;12.23;;;;;;;16.25;100.00;100036.19;5047337;28;20040;-73
2021/04/14 09:58:53;;;;;;;15.57;11.77;;;;;;;16.87;100.00;100026.78;5047185;28;20028;-70
2021/04/14 10:01:34;;;;;;;16.23;10.48;;;;;;;17.10;100.00;100022.34;5047245;28;20051;-73
2021/04/14 10:04:00;;;;;;;13.68;10.68;;;;;;;17.18;100.00;100021.50;5045577;28;20037;-70
2021/04/14 10:06:27;;;;;;;15.18;9.85;;;;;;;17.03;100.00;99991.47;5047018;28;20116;-71
2021/04/14 10:08:58;;;;;;;12.43;8.00;;;;;;;17.62;100.00;100013.75;5044933;28;20111;-71
2021/04/14 10:11:30;;;;;;;10.70;7.45;;;;;;;17.91;100.00;100010.38;5046569;28;20189;-71
2021/04/14 10:14:06;;;;;;;14.15;5.75;;;;;;;17.99;100.00;100006.00;5047029;28;20059;-71
2021/04/14 10:16:32;;;;;;;9.27;4.90;;;;;;;18.06;100.00;100014.91;5047226;28;20112;-71
2021/04/14 10:19:07;;;;;;;6.35;4.30;;;;;;;17.76;100.00;99990.13;5046785;28;20017;-70
2021/04/14 10:21:36;;;;;;;10.00;4.80;;;;;;;17.15;100.00;99993.56;5046622;28;20045;-70
2021/04/14 10:24:06;;;;;;;9.65;4.80;;;;;;;17.13;100.00;99981.47;5047309;28;20025;-70
2021/04/14 10:26:35;;;;;;;10.38;5.65;;;;;;;17.24;100.00;99986.34;5047135;28;20041;-70
2021/04/14 10:29:07;;;;;;;7.87;5.70;;;;;;;16.55;100.00;99994.13;5046459;28;20029;-72
2021/04/14 10:31:35;;;;;;;10.80;5.70;;;;;;;16.28;100.00;99993.53;5046946;28;20602;-70
2021/04/14 10:34:12;;;;;;;12.05;9.05;;;;;;;16.59;100.00;99963.69;5046884;28;20547;-70
2021/04/14 10:36:41;;;;;;;8.18;4.60;;;;;;;16.71;100.00;99949.09;5042519;28;20381;-70
2021/04/14 10:39:17;;;;;;;9.15;5.05;;;;;;;16.89;100.00;99966.56;5046664;28;20029;-70
2021/04/14 10:41:44;;;;;;;6.90;4.13;;;;;;;16.76;100.00;99965.28;5046723;28;20045;-72
2021/04/14 10:44:18;;;;;;;5.97;3.83;;;;;;;16.63;100.00;99957.06;5046673;28;20043;-70
2021/04/14 10:46:45;;;;;;;6.50;3.88;;;;;;;16.62;100.00;99936.06;5047008;28;20091;-71
2021/04/14 10:49:23;;;;;;;6.72;3.95;;;;;;;17.05;100.00;99955.88;5046676;28;20512;-70
2021/04/14 10:51:52;;;;;;;5.85;3.60;;;;;;;17.29;100.00;99951.44;5042790;28;20037;-70
2021/04/14 10:54:23;;;;;;;6.70;3.90;;;;;;;17.56;100.00;99950.88;5046554;28;20095;-71
2021/04/14 10:57:08;;;;;;;7.07;3.67;;;;;;;17.35;100.00;99942.78;5046387;28;20029;-70
2021/04/14 10:59:35;;;;;;;6.20;2.80;;;;;;;17.13;100.00;99947.88;5046811;28;20110;-70
2021/04/14 11:02:08;;;;;;;5.00;2.10;;;;;;;16.99;100.00;99944.16;5046682;28;20466;-70
2021/04/14 11:04:39;;;;;;;4.18;2.20;;;;;;;16.96;100.00;99938.41;5039029;28;20029;-69
2021/04/14 11:07:18;;;;;;;4.82;2.53;;;;;;;17.35;100.00;99937.47;5046035;28;20049;-70
2021/04/14 11:09:44;;;;;;;4.78;2.00;;;;;;;17.53;100.00;99935.34;5046171;28;20060;-70
2021/04/14 11:12:24;;;;;;;4.38;2.00;;;;;;;17.76;100.00;99918.56;5046550;28;20037;-70
2021/04/14 11:14:54;;;;;;;8.23;4.30;;;;;;;17.91;97.64;99895.56;5043763;28;20028;-70
2021/04/14 11:17:32;;;;;;;7.70;1.98;;;;;;;18.46;97.00;99919.97;5046899;28;20029;-72
2021/04/14 11:20:10;;;;;;;4.03;2.33;;;;;;;18.83;97.97;99903.06;5046372;28;20032;-70